sensor_id;sensor_type;location;lat;lon;timestamp;pressure;altitude;pressure_sealevel;temperature
24714;BMP280;12820;51.580;5.010;2023-04-01T00:01:06;99129.09;;;12.54
24714;BMP280;12820;51.580;5.010;2023-04-01T00:06:11;99134.09;;;12.56
24714;BMP280;12820;51.580;5.010;2023-04-01T00:11:15;99129.88;;;12.56
24714;BMP280;12820;51.580;5.010;2023-04-01T00:16:17;99138.25;;;12.57
24714;BMP280;12820;51.580;5.010;2023-04-01T00:21:24;99146.59;;;12.57
24714;BMP280;12820;51.580;5.010;2023-04-01T00:26:26;99146.69;;;12.56
24714;BMP280;12820;51.580;5.010;2023-04-01T00:31:28;99154.16;;;12.57
24714;BMP280;12820;51.580;5.010;2023-04-01T00:36:31;99159.19;;;12.57
24714;BMP280;12820;51.580;5.010;2023-04-01T00:41:33;99164.22;;;12.57
24714;BMP280;12820;51.580;5.010;2023-04-01T00:46:36;99169.25;;;12.57
24714;BMP280;12820;51.580;5.010;2023-04-01T00:51:39;99172.53;;;12.59
24714;BMP280;12820;51.580;5.010;2023-04-01T00:57:08;99182.63;;;12.59
24714;BMP280;12820;51.580;5.010;2023-04-01T01:02:14;99191.94;;;12.57
24714;BMP280;12820;51.580;5.010;2023-04-01T01:24:07;99199.00;;;12.51
24714;BMP280;12820;51.580;5.010;2023-04-01T01:34:27;99203.50;;;12.44
24714;BMP280;12820;51.580;5.010;2023-04-01T01:39:34;99203.53;;;12.43
24714;BMP280;12820;51.580;5.010;2023-04-01T01:44:38;99209.56;;;12.41
24714;BMP280;12820;51.580;5.010;2023-04-01T01:49:41;99215.53;;;12.38
24714;BMP280;12820;51.580;5.010;2023-04-01T01:54:51;99220.66;;;12.37
24714;BMP280;12820;51.580;5.010;2023-04-01T02:00:02;99221.63;;;12.34
24714;BMP280;12820;51.580;5.010;2023-04-01T02:05:23;99228.34;;;12.34
24714;BMP280;12820;51.580;5.010;2023-04-01T02:10:31;99228.50;;;12.31
24714;BMP280;12820;51.580;5.010;2023-04-01T02:15:37;99240.34;;;12.29
24714;BMP280;12820;51.580;5.010;2023-04-01T02:20:44;99244.66;;;12.27
24714;BMP280;12820;51.580;5.010;2023-04-01T02:25:47;99233.81;;;12.25
24714;BMP280;12820;51.580;5.010;2023-04-01T02:30:49;99239.72;;;12.24
24714;BMP280;12820;51.580;5.010;2023-04-01T02:35:52;99244.75;;;12.24
24714;BMP280;12820;51.580;5.010;2023-04-01T02:40:59;99259.88;;;12.24
24714;BMP280;12820;51.580;5.010;2023-04-01T02:46:02;99269.16;;;12.24
24714;BMP280;12820;51.580;5.010;2023-04-01T02:51:06;99262.47;;;12.23
24714;BMP280;12820;51.580;5.010;2023-04-01T02:56:08;99266.69;;;12.22
24714;BMP280;12820;51.580;5.010;2023-04-01T03:01:10;99273.44;;;12.22
24714;BMP280;12820;51.580;5.010;2023-04-01T03:06:15;99278.53;;;12.20
24714;BMP280;12820;51.580;5.010;2023-04-01T03:11:17;99281.91;;;12.19
24714;BMP280;12820;51.580;5.010;2023-04-01T03:16:19;99274.38;;;12.19
24714;BMP280;12820;51.580;5.010;2023-04-01T03:21:23;99287.06;;;12.18
24714;BMP280;12820;51.580;5.010;2023-04-01T03:26:25;99290.50;;;12.15
24714;BMP280;12820;51.580;5.010;2023-04-01T03:31:29;99298.94;;;12.14
24714;BMP280;12820;51.580;5.010;2023-04-01T03:36:32;99305.75;;;12.12
24714;BMP280;12820;51.580;5.010;2023-04-01T03:41:36;99303.28;;;12.11
24714;BMP280;12820;51.580;5.010;2023-04-01T03:46:40;99299.22;;;12.08
24714;BMP280;12820;51.580;5.010;2023-04-01T03:51:43;99311.94;;;12.06
24714;BMP280;12820;51.580;5.010;2023-04-01T03:56:46;99313.63;;;12.05
24714;BMP280;12820;51.580;5.010;2023-04-01T04:01:49;99325.47;;;12.03
24714;BMP280;12820;51.580;5.010;2023-04-01T04:06:52;99326.34;;;12.02
24714;BMP280;12820;51.580;5.010;2023-04-01T04:11:57;99341.47;;;12.02
24714;BMP280;12820;51.580;5.010;2023-04-01T04:17:00;99348.25;;;12.00
24714;BMP280;12820;51.580;5.010;2023-04-01T04:22:03;99348.41;;;11.97
24714;BMP280;12820;51.580;5.010;2023-04-01T04:27:06;99360.16;;;11.97
24714;BMP280;12820;51.580;5.010;2023-04-01T04:32:11;99356.91;;;11.95
24714;BMP280;12820;51.580;5.010;2023-04-01T04:37:14;99367.84;;;11.94
24714;BMP280;12820;51.580;5.010;2023-04-01T04:42:16;99370.38;;;11.94
24714;BMP280;12820;51.580;5.010;2023-04-01T04:47:18;99380.50;;;11.92
24714;BMP280;12820;51.580;5.010;2023-04-01T04:52:21;99379.72;;;11.90
24714;BMP280;12820;51.580;5.010;2023-04-01T04:57:23;99391.44;;;11.91
24714;BMP280;12820;51.580;5.010;2023-04-01T05:02:29;99400.69;;;11.91
24714;BMP280;12820;51.580;5.010;2023-04-01T05:07:33;99420.09;;;11.89
24714;BMP280;12820;51.580;5.010;2023-04-01T05:12:35;99410.84;;;11.90
24714;BMP280;12820;51.580;5.010;2023-04-01T05:17:43;99424.25;;;11.90
24714;BMP280;12820;51.580;5.010;2023-04-01T05:22:45;99438.44;;;11.91
24714;BMP280;12820;51.580;5.010;2023-04-01T05:27:48;99446.00;;;11.91
24714;BMP280;12820;51.580;5.010;2023-04-01T05:32:50;99450.94;;;11.94
24714;BMP280;12820;51.580;5.010;2023-04-01T05:37:52;99452.56;;;11.95
24714;BMP280;12820;51.580;5.010;2023-04-01T05:42:56;99466.72;;;11.97
24714;BMP280;12820;51.580;5.010;2023-04-01T05:47:58;99476.72;;;11.99
24714;BMP280;12820;51.580;5.010;2023-04-01T05:53:04;99477.47;;;12.01
24714;BMP280;12820;51.580;5.010;2023-04-01T05:58:07;99498.31;;;12.04
24714;BMP280;12820;51.580;5.010;2023-04-01T06:03:10;99494.91;;;12.05
24714;BMP280;12820;51.580;5.010;2023-04-01T06:08:17;99502.41;;;12.07
24714;BMP280;12820;51.580;5.010;2023-04-01T06:13:47;99514.81;;;12.11
24714;BMP280;12820;51.580;5.010;2023-04-01T06:19:39;99534.75;;;12.15
24714;BMP280;12820;51.580;5.010;2023-04-01T06:24:31;99539.56;;;12.21
24714;BMP280;12820;51.580;5.010;2023-04-01T06:35:27;99557.59;;;12.32
24714;BMP280;12820;51.580;5.010;2023-04-01T06:41:01;99562.38;;;12.38
24714;BMP280;12820;51.580;5.010;2023-04-01T06:46:15;99559.72;;;12.41
24714;BMP280;12820;51.580;5.010;2023-04-01T06:57:34;99578.44;;;12.55
24714;BMP280;12820;51.580;5.010;2023-04-01T07:02:45;99589.19;;;12.58
24714;BMP280;12820;51.580;5.010;2023-04-01T07:07:53;99589.94;;;12.62
24714;BMP280;12820;51.580;5.010;2023-04-01T07:13:00;99599.69;;;12.69
24714;BMP280;12820;51.580;5.010;2023-04-01T07:18:30;99619.44;;;12.79
24714;BMP280;12820;51.580;5.010;2023-04-01T07:23:39;99620.75;;;12.87
24714;BMP280;12820;51.580;5.010;2023-04-01T07:29:12;99625.19;;;13.00
24714;BMP280;12820;51.580;5.010;2023-04-01T07:34:27;99640.66;;;13.13
24714;BMP280;12820;51.580;5.010;2023-04-01T07:40:05;99640.25;;;13.21
24714;BMP280;12820;51.580;5.010;2023-04-01T07:45:18;99636.31;;;13.34
24714;BMP280;12820;51.580;5.010;2023-04-01T07:50:31;99651.03;;;13.43
24714;BMP280;12820;51.580;5.010;2023-04-01T07:55:47;99653.19;;;13.51
24714;BMP280;12820;51.580;5.010;2023-04-01T08:06:19;99680.16;;;13.87
24714;BMP280;12820;51.580;5.010;2023-04-01T08:11:41;99687.69;;;14.06
24714;BMP280;12820;51.580;5.010;2023-04-01T08:22:29;99706.78;;;14.12
24714;BMP280;12820;51.580;5.010;2023-04-01T08:27:45;99697.63;;;14.09
24714;BMP280;12820;51.580;5.010;2023-04-01T08:33:31;99713.59;;;14.10
24714;BMP280;12820;51.580;5.010;2023-04-01T08:38:54;99716.22;;;14.08
24714;BMP280;12820;51.580;5.010;2023-04-01T09:01:15;99749.13;;;14.07
24714;BMP280;12820;51.580;5.010;2023-04-01T09:06:55;99747.94;;;14.14
24714;BMP280;12820;51.580;5.010;2023-04-01T09:12:24;99765.38;;;14.20
24714;BMP280;12820;51.580;5.010;2023-04-01T09:17:39;99763.75;;;14.37
24714;BMP280;12820;51.580;5.010;2023-04-01T09:28:19;99770.28;;;14.75
24714;BMP280;12820;51.580;5.010;2023-04-01T09:39:15;99785.81;;;14.68
24714;BMP280;12820;51.580;5.010;2023-04-01T10:00:35;99808.97;;;14.77
24714;BMP280;12820;51.580;5.010;2023-04-01T10:11:35;99816.34;;;14.81
24714;BMP280;12820;51.580;5.010;2023-04-01T11:00:38;99847.19;;;14.71
24714;BMP280;12820;51.580;5.010;2023-04-01T11:11:47;99865.25;;;14.64
24714;BMP280;12820;51.580;5.010;2023-04-01T11:17:17;99869.47;;;14.63
24714;BMP280;12820;51.580;5.010;2023-04-01T11:28:15;99882.25;;;14.78
24714;BMP280;12820;51.580;5.010;2023-04-01T11:33:31;99882.44;;;14.93
24714;BMP280;12820;51.580;5.010;2023-04-01T11:39:03;99891.97;;;15.05
24714;BMP280;12820;51.580;5.010;2023-04-01T11:44:30;99900.94;;;15.12
24714;BMP280;12820;51.580;5.010;2023-04-01T11:49:57;99903.16;;;15.18
24714;BMP280;12820;51.580;5.010;2023-04-01T12:22:41;99946.22;;;15.34
24714;BMP280;12820;51.580;5.010;2023-04-01T12:33:26;99957.06;;;15.20
24714;BMP280;12820;51.580;5.010;2023-04-01T12:44:26;99967.88;;;15.05
24714;BMP280;12820;51.580;5.010;2023-04-01T12:49:55;99981.63;;;15.00
24714;BMP280;12820;51.580;5.010;2023-04-01T13:00:38;99988.16;;;14.86
24714;BMP280;12820;51.580;5.010;2023-04-01T13:17:02;100003.88;;;14.74
24714;BMP280;12820;51.580;5.010;2023-04-01T13:22:20;100014.19;;;14.70
24714;BMP280;12820;51.580;5.010;2023-04-01T13:43:02;100031.03;;;14.51
24714;BMP280;12820;51.580;5.010;2023-04-01T13:48:31;100039.78;;;14.43
24714;BMP280;12820;51.580;5.010;2023-04-01T14:30:52;100087.00;;;14.42
24714;BMP280;12820;51.580;5.010;2023-04-01T14:36:29;100082.66;;;14.46
24714;BMP280;12820;51.580;5.010;2023-04-01T14:52:28;100103.97;;;14.40
24714;BMP280;12820;51.580;5.010;2023-04-01T14:57:33;100115.81;;;14.39
24714;BMP280;12820;51.580;5.010;2023-04-01T15:08:03;100124.66;;;14.29
24714;BMP280;12820;51.580;5.010;2023-04-01T15:13:24;100140.06;;;14.23
24714;BMP280;12820;51.580;5.010;2023-04-01T15:18:40;100136.84;;;14.20
24714;BMP280;12820;51.580;5.010;2023-04-01T15:24:07;100148.78;;;14.16
24714;BMP280;12820;51.580;5.010;2023-04-01T15:29:28;100157.19;;;14.17
24714;BMP280;12820;51.580;5.010;2023-04-01T15:40:53;100162.75;;;14.24
24714;BMP280;12820;51.580;5.010;2023-04-01T15:45:45;100174.16;;;14.34
24714;BMP280;12820;51.580;5.010;2023-04-01T15:50:57;100173.97;;;14.39
24714;BMP280;12820;51.580;5.010;2023-04-01T16:12:04;100192.56;;;14.17
24714;BMP280;12820;51.580;5.010;2023-04-01T16:22:49;100210.13;;;13.99
24714;BMP280;12820;51.580;5.010;2023-04-01T16:28:28;100216.31;;;13.90
24714;BMP280;12820;51.580;5.010;2023-04-01T16:33:46;100221.59;;;13.85
24714;BMP280;12820;51.580;5.010;2023-04-01T16:39:17;100228.50;;;13.80
24714;BMP280;12820;51.580;5.010;2023-04-01T16:44:26;100242.09;;;13.76
24714;BMP280;12820;51.580;5.010;2023-04-01T17:00:27;100265.47;;;13.58
24714;BMP280;12820;51.580;5.010;2023-04-01T17:10:53;100271.53;;;13.53
24714;BMP280;12820;51.580;5.010;2023-04-01T17:16:22;100289.34;;;13.50
24714;BMP280;12820;51.580;5.010;2023-04-01T17:21:47;100289.50;;;13.46
24714;BMP280;12820;51.580;5.010;2023-04-01T17:37:52;100335.28;;;13.35
24714;BMP280;12820;51.580;5.010;2023-04-01T17:43:32;100343.81;;;13.32
24714;BMP280;12820;51.580;5.010;2023-04-01T17:48:46;100353.13;;;13.30
24714;BMP280;12820;51.580;5.010;2023-04-01T17:53:58;100367.56;;;13.26
24714;BMP280;12820;51.580;5.010;2023-04-01T18:10:06;100395.59;;;13.17
24714;BMP280;12820;51.580;5.010;2023-04-01T18:15:21;100405.78;;;13.14
24714;BMP280;12820;51.580;5.010;2023-04-01T18:25:54;100442.09;;;13.09
24714;BMP280;12820;51.580;5.010;2023-04-01T18:31:07;100448.09;;;13.07
24714;BMP280;12820;51.580;5.010;2023-04-01T18:36:37;100471.66;;;13.06
24714;BMP280;12820;51.580;5.010;2023-04-01T18:41:56;100476.81;;;13.03
24714;BMP280;12820;51.580;5.010;2023-04-01T18:52:34;100512.41;;;12.93
24714;BMP280;12820;51.580;5.010;2023-04-01T18:57:49;100515.94;;;12.87
24714;BMP280;12820;51.580;5.010;2023-04-01T19:03:07;100527.84;;;12.82
24714;BMP280;12820;51.580;5.010;2023-04-01T19:08:29;100546.59;;;12.74
24714;BMP280;12820;51.580;5.010;2023-04-01T19:18:43;100566.72;;;12.76
24714;BMP280;12820;51.580;5.010;2023-04-01T19:34:41;100608.28;;;12.62
24714;BMP280;12820;51.580;5.010;2023-04-01T19:50:14;100617.72;;;12.52
24714;BMP280;12820;51.580;5.010;2023-04-01T19:55:43;100628.72;;;12.50
24714;BMP280;12820;51.580;5.010;2023-04-01T20:00:51;100651.44;;;12.48
24714;BMP280;12820;51.580;5.010;2023-04-01T20:11:41;100680.09;;;12.44
24714;BMP280;12820;51.580;5.010;2023-04-01T20:21:50;100694.47;;;12.41
24714;BMP280;12820;51.580;5.010;2023-04-01T20:27:08;100700.41;;;12.39
24714;BMP280;12820;51.580;5.010;2023-04-01T20:48:24;100746.69;;;12.36
24714;BMP280;12820;51.580;5.010;2023-04-01T20:53:33;100764.41;;;12.32
24714;BMP280;12820;51.580;5.010;2023-04-01T21:09:35;100796.50;;;12.24
24714;BMP280;12820;51.580;5.010;2023-04-01T21:46:54;100874.97;;;12.08
24714;BMP280;12820;51.580;5.010;2023-04-01T21:52:38;100880.13;;;12.01
24714;BMP280;12820;51.580;5.010;2023-04-01T22:24:15;100944.44;;;11.75
24714;BMP280;12820;51.580;5.010;2023-04-01T22:29:34;100958.78;;;11.69
24714;BMP280;12820;51.580;5.010;2023-04-01T22:34:44;100964.75;;;11.65
24714;BMP280;12820;51.580;5.010;2023-04-01T22:40:02;100977.38;;;11.62
24714;BMP280;12820;51.580;5.010;2023-04-01T22:50:22;100996.00;;;11.52
24714;BMP280;12820;51.580;5.010;2023-04-01T22:55:33;101004.44;;;11.48
24714;BMP280;12820;51.580;5.010;2023-04-01T23:00:48;101012.06;;;11.44
24714;BMP280;12820;51.580;5.010;2023-04-01T23:05:56;101024.69;;;11.39
24714;BMP280;12820;51.580;5.010;2023-04-01T23:11:02;101024.78;;;11.34
24714;BMP280;12820;51.580;5.010;2023-04-01T23:16:07;101039.94;;;11.29
24714;BMP280;12820;51.580;5.010;2023-04-01T23:21:35;101050.88;;;11.25
24714;BMP280;12820;51.580;5.010;2023-04-01T23:27:08;101064.38;;;11.20
24714;BMP280;12820;51.580;5.010;2023-04-01T23:32:15;101072.00;;;11.14
24714;BMP280;12820;51.580;5.010;2023-04-01T23:37:19;101084.66;;;11.10
24714;BMP280;12820;51.580;5.010;2023-04-01T23:42:40;101091.38;;;11.08
24714;BMP280;12820;51.580;5.010;2023-04-01T23:47:45;101097.28;;;11.04
24714;BMP280;12820;51.580;5.010;2023-04-01T23:52:53;101099.88;;;11.00
